Isis — PHLD — position and weather

sailwx.info

Track history (hours):
 
Tides and Currents Weather Stations Pressure Air Temp Water Temp Dewpoint Dewpoint Depression Visibility Wind Speed Wind Dir Waves Ship Positions

Isis

Last reported at 2017-Nov-19 12:24 UTC. Time now 2017-Nov-19 17:40 UTC.
Position N 57°42' E 007°33'.

Length 111 m; draft 6.3 m.

Type: Ship. MMSI: 244768000.

Date/timePositionNaut miles runAvg speedWind from/ knotsBaromVisibWave heightAir tempDewpointWater temp
2017-Nov-19 12:24N 57°42' E 007°33'4 9.9
2017-Nov-19 12:00N 57°42' E 007°25'5 9.6
2017-Nov-19 11:30N 57°42' E 007°16'5 9.3
2017-Nov-19 10:59N 57°43' E 007°08'9 9.4
2017-Nov-19 10:03N 57°43' E 006°51'110.4
2017-Nov-19 09:59N 57°43' E 006°50'5 9.1
2017-Nov-19 09:29N 57°44' E 006°41'4 8.9
2017-Nov-19 08:59N 57°44' E 006°33'4 8.6
2017-Nov-19 08:30N 57°46' E 006°26'4 8.8
2017-Nov-19 08:00N 57°49' E 006°20'4 8.7
2017-Nov-19 07:30N 57°52' E 006°14'4 8.7
2017-Nov-19 07:00N 57°55' E 006°08'4 8.8
2017-Nov-19 06:31N 57°58' E 006°02'16 8.5
2017-Nov-19 04:37N 58°09' E 005°40'1 8.6
2017-Nov-19 04:30N 58°10' E 005°40'5 8.9
2017-Nov-19 04:00N 58°14' E 005°37'5 9.6
2017-Nov-19 03:30N 58°19' E 005°35'510.0
2017-Nov-19 03:00N 58°24' E 005°32'510.4
2017-Nov-19 02:29N 58°29' E 005°30'510.3
2017-Nov-19 02:00N 58°34' E 005°27'510.2
2017-Nov-19 01:30N 58°39' E 005°25'510.4
2017-Nov-19 01:00N 58°44' E 005°22'5 9.9
2017-Nov-19 00:30N 58°48' E 005°19'510.1
2017-Nov-19 00:00N 58°53' E 005°16'5 9.9
2017-Nov-18 23:30N 58°58' E 005°13'5 9.3
2017-Nov-18 23:01N 59°02' E 005°11'3 7.0
2017-Nov-18 22:31N 59°04' E 005°16'5 9.0
2017-Nov-18 22:00N 59°07' E 005°24'510.2
2017-Nov-18 21:30N 59°10' E 005°31'510.2
2017-Nov-18 21:00N 59°14' E 005°38'611.7
2017-Nov-18 20:30N 59°18' E 005°47'611.7
2017-Nov-18 20:00N 59°20' E 005°56'4 6.2
2017-Nov-18 19:23N 59°23' E 006°03'0 0.0
2017-Nov-18 18:58N 59°23' E 006°03'0 0.0
2017-Nov-18 18:28N 59°23' E 006°03'0 0.0
2017-Nov-18 17:58N 59°23' E 006°03'0 0.0
2017-Nov-18 17:28N 59°23' E 006°03'0 0.0
2017-Nov-18 16:52N 59°23' E 006°03'0 0.0
2017-Nov-18 16:21N 59°23' E 006°03'0 0.0
2017-Nov-18 15:51N 59°23' E 006°03'0 0.0
2017-Nov-18 15:27N 59°23' E 006°03'0 0.0
2017-Nov-18 15:00N 59°23' E 006°03'0 0.0
2017-Nov-18 14:27N 59°23' E 006°03'0 0.0
2017-Nov-18 13:56N 59°23' E 006°03'0 0.0
2017-Nov-18 13:26N 59°23' E 006°03'0 0.0
2017-Nov-18 12:56N 59°23' E 006°03'0 0.0
2017-Nov-18 12:26N 59°23' E 006°03'0 0.0
2017-Nov-18 11:55N 59°23' E 006°03'0 0.0
2017-Nov-18 11:25N 59°23' E 006°03'0 0.0
2017-Nov-18 10:55N 59°23' E 006°03'0 0.0
2017-Nov-18 10:25N 59°23' E 006°03'0 0.0
2017-Nov-18 09:55N 59°23' E 006°03'0 0.0
2017-Nov-18 09:30N 59°23' E 006°03'0 0.0
2017-Nov-18 09:00N 59°23' E 006°03'0 0.0
2017-Nov-18 08:30N 59°23' E 006°03'0 0.0
2017-Nov-18 08:00N 59°23' E 006°03'0 0.0
2017-Nov-18 07:30N 59°23' E 006°03'0 0.0
2017-Nov-18 06:59N 59°23' E 006°03'0 0.0
2017-Nov-18 06:29N 59°23' E 006°03'0 0.0
2017-Nov-18 05:59N 59°23' E 006°03'0 0.0
2017-Nov-18 05:29N 59°23' E 006°03'0 0.0
2017-Nov-18 04:58N 59°23' E 006°03'0 0.0
2017-Nov-18 04:28N 59°23' E 006°03'1 2.9
2017-Nov-18 03:58N 59°22' E 006°01'2 4.0
2017-Nov-18 03:30N 59°21' E 005°57'612.2
2017-Nov-18 03:00N 59°18' E 005°48'612.6
2017-Nov-18 02:30N 59°14' E 005°37'3 6.5
2017-Nov-18 02:00N 59°14' E 005°31'0 0.1
2017-Nov-18 01:30N 59°14' E 005°31'0 0.0
2017-Nov-18 01:00N 59°14' E 005°31'0 0.1
2017-Nov-18 00:29N 59°14' E 005°31'0 0.1
2017-Nov-17 23:59N 59°14' E 005°31'0 0.1
2017-Nov-17 23:29N 59°14' E 005°31'0 0.1
2017-Nov-17 22:59N 59°14' E 005°31'0 0.0
2017-Nov-17 22:29N 59°14' E 005°31'0 0.0
2017-Nov-17 21:58N 59°14' E 005°31'0 0.1
2017-Nov-17 21:28N 59°14' E 005°31'0 0.1
2017-Nov-17 20:58N 59°14' E 005°31'0 0.1
2017-Nov-17 20:28N 59°14' E 005°31'0 0.0
2017-Nov-17 19:57N 59°14' E 005°31'0 0.0
2017-Nov-17 19:30N 59°14' E 005°31'0 0.1
2017-Nov-17 19:00N 59°14' E 005°31'0 0.0
2017-Nov-17 18:27N 59°14' E 005°31'0 0.1
2017-Nov-17 18:00N 59°14' E 005°31'0 0.1
2017-Nov-17 17:29N 59°14' E 005°31'0 0.0
2017-Nov-17 16:59N 59°14' E 005°31'0 0.0
2017-Nov-17 16:29N 59°14' E 005°31'0 0.1
2017-Nov-17 16:00N 59°14' E 005°31'0 0.0
2017-Nov-17 15:28N 59°14' E 005°31'0 0.2
2017-Nov-17 14:58N 59°14' E 005°31'0 0.0
2017-Nov-17 14:28N 59°14' E 005°31'0 0.1
2017-Nov-17 13:58N 59°14' E 005°31'0 0.0
2017-Nov-17 13:25N 59°14' E 005°31'0 0.0
2017-Nov-17 13:00N 59°14' E 005°31'0 0.3
2017-Nov-17 12:30N 59°14' E 005°31'4 7.9
2017-Nov-17 12:00N 59°10' E 005°33'4 7.5
2017-Nov-17 11:30N 59°07' E 005°29'4 7.9
2017-Nov-17 11:00N 59°05' E 005°22'4 7.9
2017-Nov-17 10:30N 59°03' E 005°16'5 8.9
2017-Nov-17 10:00N 58°60' E 005°10'510.0
2017-Nov-17 09:30N 58°56' E 005°03'510.1
2017-Nov-17 08:59N 58°52' E 004°56'510.0
2017-Nov-17 08:30N 58°48' E 004°50'33710.3
2017-Nov-15 23:45N 53°11' E 004°32'312.5
2017-Nov-15 23:30N 53°09' E 004°30'612.1
2017-Nov-15 23:00N 53°03' E 004°25'612.0
2017-Nov-15 22:30N 52°58' E 004°20'611.9
2017-Nov-15 22:00N 52°53' E 004°15'611.7
2017-Nov-15 21:30N 52°48' E 004°09'611.7
2017-Nov-15 21:00N 52°44' E 004°03'611.6
2017-Nov-15 20:30N 52°39' E 003°57'611.5
2017-Nov-15 20:00N 52°35' E 003°51'611.4
2017-Nov-15 19:30N 52°31' E 003°45'611.1
2017-Nov-15 18:58N 52°26' E 003°39'511.2
2017-Nov-15 18:30N 52°21' E 003°37'34 2.2
2017-Nov-15 03:10N 51°48' E 003°22'0 0.1
2017-Nov-15 02:58N 51°48' E 003°22'0 0.0
2017-Nov-15 01:33N 51°48' E 003°22'0 0.0
2017-Nov-15 00:29N 51°48' E 003°22'5 1.6
2017-Nov-14 21:32N 51°46' E 003°15'112.9
2017-Nov-14 21:29N 51°46' E 003°14'612.2
2017-Nov-14 20:59N 51°45' E 003°05'1610.9
2017-Nov-14 19:32N 51°44' E 002°39'5 9.5
2017-Nov-14 19:03N 51°41' E 002°34'1 9.6
2017-Nov-14 18:55N 51°40' E 002°32'7 9.4
2017-Nov-14 18:09N 51°35' E 002°25'3 9.1
2017-Nov-14 17:50N 51°32' E 002°22'4 9.1
2017-Nov-14 17:27N 51°29' E 002°19'4 8.9
2017-Nov-14 17:00N 51°26' E 002°15'5 9.0
2017-Nov-14 16:27N 51°22' E 002°11'4 9.4
2017-Nov-14 16:00N 51°18' E 002°07'5 9.5
2017-Nov-14 15:30N 51°15' E 002°03'5 9.6
2017-Nov-14 15:00N 51°11' E 001°58'5 9.9
2017-Nov-14 14:30N 51°08' E 001°51'611.1
2017-Nov-14 14:00N 51°05' E 001°45'612.1
2017-Nov-14 13:30N 51°00' E 001°38'612.5
2017-Nov-14 13:00N 50°56' E 001°31'4212.1
2017-Nov-14 09:34N 50°29' E 000°41'312.6
2017-Nov-14 09:22N 50°28' E 000°37'912.6
2017-Nov-14 08:38N 50°26' E 000°23'212.3
2017-Nov-14 08:30N 50°25' E 000°21'712.9
2017-Nov-14 07:58N 50°23' E 000°10'613.3
2017-Nov-14 07:30N 50°21' E 000°01'912.6
2017-Nov-14 06:47N 50°20' W 000°13'4212.4
2017-Nov-14 03:22N 50°16' W 001°19'412.0
2017-Nov-14 03:00N 50°15' W 001°25'611.5
2017-Nov-14 02:30N 50°15' W 001°34'219 7.4
2017-Nov-12 21:04N 51°49' W 006°48'110.1
2017-Nov-12 21:00N 51°50' W 006°48'510.1
2017-Nov-12 20:29N 51°55' W 006°51'510.1
2017-Nov-12 19:59N 51°60' W 006°54'510.2
2017-Nov-12 19:30N 52°04' W 006°56'4 8.9
2017-Nov-12 19:00N 52°08' W 006°58'510.1
2017-Nov-12 18:30N 52°13' W 006°57'4 8.0
2017-Nov-12 17:59N 52°16' W 007°02'0 0.0
2017-Nov-12 17:13N 52°16' W 007°02'0 0.0
2017-Nov-12 16:55N 52°16' W 007°02'0 0.0
2017-Nov-12 16:25N 52°16' W 007°02'0 0.0
2017-Nov-12 16:00N 52°16' W 007°02'0 0.0
2017-Nov-12 15:30N 52°16' W 007°02'0 0.0
2017-Nov-12 15:00N 52°16' W 007°02'0 0.0
2017-Nov-12 14:30N 52°16' W 007°02'0 0.0
2017-Nov-12 14:00N 52°16' W 007°02'0 0.0
2017-Nov-12 13:17N 52°16' W 007°02'0 0.0
2017-Nov-12 12:53N 52°16' W 007°02'0 0.0
2017-Nov-12 12:29N 52°16' W 007°02'0 0.0
2017-Nov-12 11:59N 52°16' W 007°02'0 0.0
2017-Nov-12 11:16N 52°16' W 007°02'0 0.0
2017-Nov-12 10:58N 52°16' W 007°02'0 0.0
2017-Nov-12 10:28N 52°16' W 007°02'0 0.0
2017-Nov-12 09:58N 52°16' W 007°02'0 0.0
2017-Nov-12 09:09N 52°16' W 007°02'0 0.0
2017-Nov-12 08:51N 52°16' W 007°02'0 0.0
2017-Nov-12 08:21N 52°16' W 007°02'0 0.0
2017-Nov-12 07:57N 52°16' W 007°02'0 0.0
2017-Nov-12 07:27N 52°16' W 007°02'0 0.0
2017-Nov-12 06:50N 52°16' W 007°02'0 0.0
2017-Nov-12 06:26N 52°16' W 007°02'0 0.0
2017-Nov-12 04:07N 52°16' W 007°02'0 0.0
2017-Nov-12 03:55N 52°16' W 007°02'0 0.0
2017-Nov-12 03:13N 52°16' W 007°02'0 0.0
2017-Nov-12 02:46N 52°16' W 007°02'0 0.0
2017-Nov-12 02:24N 52°16' W 007°02'0 0.0
2017-Nov-12 02:00N 52°16' W 007°02'0 0.0
2017-Nov-12 01:24N 52°16' W 007°02'0 0.0
2017-Nov-12 00:54N 52°16' W 007°02'0 0.0
2017-Nov-12 00:30N 52°16' W 007°02'0 0.0
2017-Nov-12 00:00N 52°16' W 007°02'0 0.0
2017-Nov-11 22:41N 52°16' W 007°02'0 0.0
2017-Nov-11 22:23N 52°16' W 007°02'0 0.0
2017-Nov-11 21:16N 52°16' W 007°02'0 0.0
2017-Nov-11 20:58N 52°16' W 007°02'0 0.0
2017-Nov-11 20:22N 52°16' W 007°02'0 0.0
2017-Nov-11 17:57N 52°16' W 007°02'0 0.0
2017-Nov-11 17:27N 52°16' W 007°02'0 0.0
2017-Nov-11 16:56N 52°16' W 007°02'0 0.0
2017-Nov-11 16:20N 52°16' W 007°02'0 0.0
2017-Nov-11 15:56N 52°16' W 007°02'0 0.0
2017-Nov-11 15:26N 52°16' W 007°02'0 0.0
2017-Nov-11 14:50N 52°16' W 007°02'0 0.0
2017-Nov-11 14:19N 52°16' W 007°02'0 0.0
2017-Nov-11 13:55N 52°16' W 007°02'0 0.0
2017-Nov-11 13:25N 52°16' W 007°02'0 0.0
2017-Nov-11 12:55N 52°16' W 007°02'0 0.0
2017-Nov-11 12:31N 52°16' W 007°02'0 0.0
2017-Nov-11 12:00N 52°16' W 007°02'0 0.0
2017-Nov-11 11:30N 52°16' W 007°02'0 0.0
2017-Nov-11 10:48N 52°16' W 007°02'0 0.0
2017-Nov-11 10:24N 52°16' W 007°02'0 0.0
2017-Nov-11 09:47N 52°16' W 007°02'0 0.0
2017-Nov-11 09:23N 52°16' W 007°02'0 0.0
2017-Nov-11 08:59N 52°16' W 007°02'0 0.0
2017-Nov-11 08:11N 52°16' W 007°02'0 0.0
2017-Nov-11 07:53N 52°16' W 007°02'0 0.0
2017-Nov-11 07:28N 52°16' W 007°02'0 0.0
2017-Nov-11 05:40N 52°16' W 007°02'0 0.0
2017-Nov-11 05:28N 52°16' W 007°02'0 0.0
2017-Nov-11 04:57N 52°16' W 007°02'0 0.0
2017-Nov-11 04:29N 52°16' W 007°02'0 0.0
2017-Nov-11 03:57N 52°16' W 007°02'0 0.0
2017-Nov-11 03:27N 52°16' W 007°02'0 0.0
2017-Nov-11 02:50N 52°16' W 007°02'0 0.0
2017-Nov-11 02:14N 52°16' W 007°02'0 0.0
2017-Nov-11 01:44N 52°16' W 007°02'0 0.0
2017-Nov-11 01:26N 52°16' W 007°02'0 0.0
2017-Nov-11 00:50N 52°16' W 007°02'0 0.0
2017-Nov-10 23:31N 52°16' W 007°02'0 0.0
2017-Nov-10 23:25N 52°16' W 007°02'0 0.0
2017-Nov-10 22:49N 52°16' W 007°02'0 0.0
2017-Nov-10 22:18N 52°16' W 007°02'0 0.0
2017-Nov-10 22:00N 52°16' W 007°02'0 0.0
2017-Nov-10 21:30N 52°16' W 007°02'0 0.0
2017-Nov-10 21:00N 52°16' W 007°02'0 0.0
2017-Nov-10 19:22N 52°16' W 007°02'0 0.3
2017-Nov-10 18:59N 52°16' W 007°02'2 3.4
2017-Nov-10 18:30N 52°16' W 006°59'5 9.0
2017-Nov-10 18:00N 52°12' W 006°56'4 8.5
2017-Nov-10 17:30N 52°08' W 006°58'510.6
2017-Nov-10 17:00N 52°03' W 006°55'510.8
2017-Nov-10 16:30N 51°58' W 006°52'97 9.3
2017-Nov-10 05:59N 50°27' W 005°58'4 7.9
2017-Nov-10 05:30N 50°23' W 005°56'41 7.4
2017-Nov-09 23:57N 49°55' W 005°10'510.1
2017-Nov-09 23:30N 49°55' W 005°03'610.0
2017-Nov-09 22:56N 49°55' W 004°54'4 9.8
2017-Nov-09 22:30N 49°55' W 004°48'5 9.5
2017-Nov-09 21:59N 49°55' W 004°40'5 9.4
2017-Nov-09 21:30N 49°57' W 004°33'5 9.8
2017-Nov-09 21:00N 49°58' W 004°26'5 9.8
2017-Nov-09 20:29N 49°59' W 004°18'5 9.8
2017-Nov-09 20:00N 49°60' W 004°11'610.2
2017-Nov-09 19:23N 50°00' W 004°01'610.7
2017-Nov-09 18:50N 50°01' W 003°52'411.1
2017-Nov-09 18:29N 50°02' W 003°46'611.5
2017-Nov-09 18:00N 50°03' W 003°37'612.0
2017-Nov-09 17:30N 50°03' W 003°28'612.2
2017-Nov-09 17:00N 50°05' W 003°19'612.1
2017-Nov-09 16:30N 50°05' W 003°10'612.1
2017-Nov-09 16:00N 50°07' W 003°00'611.8
2017-Nov-09 15:31N 50°07' W 002°51'611.4
2017-Nov-09 14:59N 50°08' W 002°42'  
Track history (hours):
 
Tides and Currents Weather Stations Pressure Air Temp Water Temp Dewpoint Dewpoint Depression Visibility Wind Speed Wind Dir Waves Ship Positions

Isis

Last reported at 2017-Nov-19 12:24 UTC. Time now 2017-Nov-19 17:40 UTC.
Position N 57°42' E 007°33'.

Length 111 m; draft 6.3 m.

Type: Ship. MMSI: 244768000.

Date/timePositionNaut miles runAvg speedWind from/ knotsBaromVisibWave heightAir tempDewpointWater temp
2017-Nov-19 12:24N 57°42' E 007°33'4 9.9
2017-Nov-19 12:00N 57°42' E 007°25'5 9.6
2017-Nov-19 11:30N 57°42' E 007°16'5 9.3
2017-Nov-19 10:59N 57°43' E 007°08'9 9.4
2017-Nov-19 10:03N 57°43' E 006°51'110.4
2017-Nov-19 09:59N 57°43' E 006°50'5 9.1
2017-Nov-19 09:29N 57°44' E 006°41'4 8.9
2017-Nov-19 08:59N 57°44' E 006°33'4 8.6
2017-Nov-19 08:30N 57°46' E 006°26'4 8.8
2017-Nov-19 08:00N 57°49' E 006°20'4 8.7
2017-Nov-19 07:30N 57°52' E 006°14'4 8.7
2017-Nov-19 07:00N 57°55' E 006°08'4 8.8
2017-Nov-19 06:31N 57°58' E 006°02'16 8.5
2017-Nov-19 04:37N 58°09' E 005°40'1 8.6
2017-Nov-19 04:30N 58°10' E 005°40'5 8.9
2017-Nov-19 04:00N 58°14' E 005°37'5 9.6
2017-Nov-19 03:30N 58°19' E 005°35'510.0
2017-Nov-19 03:00N 58°24' E 005°32'510.4
2017-Nov-19 02:29N 58°29' E 005°30'510.3
2017-Nov-19 02:00N 58°34' E 005°27'510.2
2017-Nov-19 01:30N 58°39' E 005°25'510.4
2017-Nov-19 01:00N 58°44' E 005°22'5 9.9
2017-Nov-19 00:30N 58°48' E 005°19'510.1
2017-Nov-19 00:00N 58°53' E 005°16'5 9.9
2017-Nov-18 23:30N 58°58' E 005°13'5 9.3
2017-Nov-18 23:01N 59°02' E 005°11'3 7.0
2017-Nov-18 22:31N 59°04' E 005°16'5 9.0
2017-Nov-18 22:00N 59°07' E 005°24'510.2
2017-Nov-18 21:30N 59°10' E 005°31'510.2
2017-Nov-18 21:00N 59°14' E 005°38'611.7
2017-Nov-18 20:30N 59°18' E 005°47'611.7
2017-Nov-18 20:00N 59°20' E 005°56'4 6.2
2017-Nov-18 19:23N 59°23' E 006°03'0 0.0
2017-Nov-18 18:58N 59°23' E 006°03'0 0.0
2017-Nov-18 18:28N 59°23' E 006°03'0 0.0
2017-Nov-18 17:58N 59°23' E 006°03'0 0.0
2017-Nov-18 17:28N 59°23' E 006°03'0 0.0
2017-Nov-18 16:52N 59°23' E 006°03'0 0.0
2017-Nov-18 16:21N 59°23' E 006°03'0 0.0
2017-Nov-18 15:51N 59°23' E 006°03'0 0.0
2017-Nov-18 15:27N 59°23' E 006°03'0 0.0
2017-Nov-18 15:00N 59°23' E 006°03'0 0.0
2017-Nov-18 14:27N 59°23' E 006°03'0 0.0
2017-Nov-18 13:56N 59°23' E 006°03'0 0.0
2017-Nov-18 13:26N 59°23' E 006°03'0 0.0
2017-Nov-18 12:56N 59°23' E 006°03'0 0.0
2017-Nov-18 12:26N 59°23' E 006°03'0 0.0
2017-Nov-18 11:55N 59°23' E 006°03'0 0.0
2017-Nov-18 11:25N 59°23' E 006°03'0 0.0
2017-Nov-18 10:55N 59°23' E 006°03'0 0.0
2017-Nov-18 10:25N 59°23' E 006°03'0 0.0
2017-Nov-18 09:55N 59°23' E 006°03'0 0.0
2017-Nov-18 09:30N 59°23' E 006°03'0 0.0
2017-Nov-18 09:00N 59°23' E 006°03'0 0.0
2017-Nov-18 08:30N 59°23' E 006°03'0 0.0
2017-Nov-18 08:00N 59°23' E 006°03'0 0.0
2017-Nov-18 07:30N 59°23' E 006°03'0 0.0
2017-Nov-18 06:59N 59°23' E 006°03'0 0.0
2017-Nov-18 06:29N 59°23' E 006°03'0 0.0
2017-Nov-18 05:59N 59°23' E 006°03'0 0.0
2017-Nov-18 05:29N 59°23' E 006°03'0 0.0
2017-Nov-18 04:58N 59°23' E 006°03'0 0.0
2017-Nov-18 04:28N 59°23' E 006°03'1 2.9
2017-Nov-18 03:58N 59°22' E 006°01'2 4.0
2017-Nov-18 03:30N 59°21' E 005°57'612.2
2017-Nov-18 03:00N 59°18' E 005°48'612.6
2017-Nov-18 02:30N 59°14' E 005°37'3 6.5
2017-Nov-18 02:00N 59°14' E 005°31'0 0.1
2017-Nov-18 01:30N 59°14' E 005°31'0 0.0
2017-Nov-18 01:00N 59°14' E 005°31'0 0.1
2017-Nov-18 00:29N 59°14' E 005°31'0 0.1
2017-Nov-17 23:59N 59°14' E 005°31'0 0.1
2017-Nov-17 23:29N 59°14' E 005°31'0 0.1
2017-Nov-17 22:59N 59°14' E 005°31'0 0.0
2017-Nov-17 22:29N 59°14' E 005°31'0 0.0
2017-Nov-17 21:58N 59°14' E 005°31'0 0.1
2017-Nov-17 21:28N 59°14' E 005°31'0 0.1
2017-Nov-17 20:58N 59°14' E 005°31'0 0.1
2017-Nov-17 20:28N 59°14' E 005°31'0 0.0
2017-Nov-17 19:57N 59°14' E 005°31'0 0.0
2017-Nov-17 19:30N 59°14' E 005°31'0 0.1
2017-Nov-17 19:00N 59°14' E 005°31'0 0.0
2017-Nov-17 18:27N 59°14' E 005°31'0 0.1
2017-Nov-17 18:00N 59°14' E 005°31'0 0.1
2017-Nov-17 17:29N 59°14' E 005°31'0 0.0
2017-Nov-17 16:59N 59°14' E 005°31'0 0.0
2017-Nov-17 16:29N 59°14' E 005°31'0 0.1
2017-Nov-17 16:00N 59°14' E 005°31'0 0.0
2017-Nov-17 15:28N 59°14' E 005°31'0 0.2
2017-Nov-17 14:58N 59°14' E 005°31'0 0.0
2017-Nov-17 14:28N 59°14' E 005°31'0 0.1
2017-Nov-17 13:58N 59°14' E 005°31'0 0.0
2017-Nov-17 13:25N 59°14' E 005°31'0 0.0
2017-Nov-17 13:00N 59°14' E 005°31'0 0.3
2017-Nov-17 12:30N 59°14' E 005°31'4 7.9
2017-Nov-17 12:00N 59°10' E 005°33'4 7.5
2017-Nov-17 11:30N 59°07' E 005°29'4 7.9
2017-Nov-17 11:00N 59°05' E 005°22'4 7.9
2017-Nov-17 10:30N 59°03' E 005°16'5 8.9
2017-Nov-17 10:00N 58°60' E 005°10'510.0
2017-Nov-17 09:30N 58°56' E 005°03'510.1
2017-Nov-17 08:59N 58°52' E 004°56'510.0
2017-Nov-17 08:30N 58°48' E 004°50'33710.3
2017-Nov-15 23:45N 53°11' E 004°32'312.5
2017-Nov-15 23:30N 53°09' E 004°30'612.1
2017-Nov-15 23:00N 53°03' E 004°25'612.0
2017-Nov-15 22:30N 52°58' E 004°20'611.9
2017-Nov-15 22:00N 52°53' E 004°15'611.7
2017-Nov-15 21:30N 52°48' E 004°09'611.7
2017-Nov-15 21:00N 52°44' E 004°03'611.6
2017-Nov-15 20:30N 52°39' E 003°57'611.5
2017-Nov-15 20:00N 52°35' E 003°51'611.4
2017-Nov-15 19:30N 52°31' E 003°45'611.1
2017-Nov-15 18:58N 52°26' E 003°39'511.2
2017-Nov-15 18:30N 52°21' E 003°37'34 2.2
2017-Nov-15 03:10N 51°48' E 003°22'0 0.1
2017-Nov-15 02:58N 51°48' E 003°22'0 0.0
2017-Nov-15 01:33N 51°48' E 003°22'0 0.0
2017-Nov-15 00:29N 51°48' E 003°22'5 1.6
2017-Nov-14 21:32N 51°46' E 003°15'112.9
2017-Nov-14 21:29N 51°46' E 003°14'612.2
2017-Nov-14 20:59N 51°45' E 003°05'1610.9
2017-Nov-14 19:32N 51°44' E 002°39'5 9.5
2017-Nov-14 19:03N 51°41' E 002°34'1 9.6
2017-Nov-14 18:55N 51°40' E 002°32'7 9.4
2017-Nov-14 18:09N 51°35' E 002°25'3 9.1
2017-Nov-14 17:50N 51°32' E 002°22'4 9.1
2017-Nov-14 17:27N 51°29' E 002°19'4 8.9
2017-Nov-14 17:00N 51°26' E 002°15'5 9.0
2017-Nov-14 16:27N 51°22' E 002°11'4 9.4
2017-Nov-14 16:00N 51°18' E 002°07'5 9.5
2017-Nov-14 15:30N 51°15' E 002°03'5 9.6
2017-Nov-14 15:00N 51°11' E 001°58'5 9.9
2017-Nov-14 14:30N 51°08' E 001°51'611.1
2017-Nov-14 14:00N 51°05' E 001°45'612.1
2017-Nov-14 13:30N 51°00' E 001°38'612.5
2017-Nov-14 13:00N 50°56' E 001°31'4212.1
2017-Nov-14 09:34N 50°29' E 000°41'312.6
2017-Nov-14 09:22N 50°28' E 000°37'912.6
2017-Nov-14 08:38N 50°26' E 000°23'212.3
2017-Nov-14 08:30N 50°25' E 000°21'712.9
2017-Nov-14 07:58N 50°23' E 000°10'613.3
2017-Nov-14 07:30N 50°21' E 000°01'912.6
2017-Nov-14 06:47N 50°20' W 000°13'4212.4
2017-Nov-14 03:22N 50°16' W 001°19'412.0
2017-Nov-14 03:00N 50°15' W 001°25'611.5
2017-Nov-14 02:30N 50°15' W 001°34'219 7.4
2017-Nov-12 21:04N 51°49' W 006°48'110.1
2017-Nov-12 21:00N 51°50' W 006°48'510.1
2017-Nov-12 20:29N 51°55' W 006°51'510.1
2017-Nov-12 19:59N 51°60' W 006°54'510.2
2017-Nov-12 19:30N 52°04' W 006°56'4 8.9
2017-Nov-12 19:00N 52°08' W 006°58'510.1
2017-Nov-12 18:30N 52°13' W 006°57'4 8.0
2017-Nov-12 17:59N 52°16' W 007°02'0 0.0
2017-Nov-12 17:13N 52°16' W 007°02'0 0.0
2017-Nov-12 16:55N 52°16' W 007°02'0 0.0
2017-Nov-12 16:25N 52°16' W 007°02'0 0.0
2017-Nov-12 16:00N 52°16' W 007°02'0 0.0
2017-Nov-12 15:30N 52°16' W 007°02'0 0.0
2017-Nov-12 15:00N 52°16' W 007°02'0 0.0
2017-Nov-12 14:30N 52°16' W 007°02'0 0.0
2017-Nov-12 14:00N 52°16' W 007°02'0 0.0
2017-Nov-12 13:17N 52°16' W 007°02'0 0.0
2017-Nov-12 12:53N 52°16' W 007°02'0 0.0
2017-Nov-12 12:29N 52°16' W 007°02'0 0.0
2017-Nov-12 11:59N 52°16' W 007°02'0 0.0
2017-Nov-12 11:16N 52°16' W 007°02'0 0.0
2017-Nov-12 10:58N 52°16' W 007°02'0 0.0
2017-Nov-12 10:28N 52°16' W 007°02'0 0.0
2017-Nov-12 09:58N 52°16' W 007°02'0 0.0
2017-Nov-12 09:09N 52°16' W 007°02'0 0.0
2017-Nov-12 08:51N 52°16' W 007°02'0 0.0
2017-Nov-12 08:21N 52°16' W 007°02'0 0.0
2017-Nov-12 07:57N 52°16' W 007°02'0 0.0
2017-Nov-12 07:27N 52°16' W 007°02'0 0.0
2017-Nov-12 06:50N 52°16' W 007°02'0 0.0
2017-Nov-12 06:26N 52°16' W 007°02'0 0.0
2017-Nov-12 04:07N 52°16' W 007°02'0 0.0
2017-Nov-12 03:55N 52°16' W 007°02'0 0.0
2017-Nov-12 03:13N 52°16' W 007°02'0 0.0
2017-Nov-12 02:46N 52°16' W 007°02'0 0.0
2017-Nov-12 02:24N 52°16' W 007°02'0 0.0
2017-Nov-12 02:00N 52°16' W 007°02'0 0.0
2017-Nov-12 01:24N 52°16' W 007°02'0 0.0
2017-Nov-12 00:54N 52°16' W 007°02'0 0.0
2017-Nov-12 00:30N 52°16' W 007°02'0 0.0
2017-Nov-12 00:00N 52°16' W 007°02'0 0.0
2017-Nov-11 22:41N 52°16' W 007°02'0 0.0
2017-Nov-11 22:23N 52°16' W 007°02'0 0.0
2017-Nov-11 21:16N 52°16' W 007°02'0 0.0
2017-Nov-11 20:58N 52°16' W 007°02'0 0.0
2017-Nov-11 20:22N 52°16' W 007°02'0 0.0
2017-Nov-11 17:57N 52°16' W 007°02'0 0.0
2017-Nov-11 17:27N 52°16' W 007°02'0 0.0
2017-Nov-11 16:56N 52°16' W 007°02'0 0.0
2017-Nov-11 16:20N 52°16' W 007°02'0 0.0
2017-Nov-11 15:56N 52°16' W 007°02'0 0.0
2017-Nov-11 15:26N 52°16' W 007°02'0 0.0
2017-Nov-11 14:50N 52°16' W 007°02'0 0.0
2017-Nov-11 14:19N 52°16' W 007°02'0 0.0
2017-Nov-11 13:55N 52°16' W 007°02'0 0.0
2017-Nov-11 13:25N 52°16' W 007°02'0 0.0
2017-Nov-11 12:55N 52°16' W 007°02'0 0.0
2017-Nov-11 12:31N 52°16' W 007°02'0 0.0
2017-Nov-11 12:00N 52°16' W 007°02'0 0.0
2017-Nov-11 11:30N 52°16' W 007°02'0 0.0
2017-Nov-11 10:48N 52°16' W 007°02'0 0.0
2017-Nov-11 10:24N 52°16' W 007°02'0 0.0
2017-Nov-11 09:47N 52°16' W 007°02'0 0.0
2017-Nov-11 09:23N 52°16' W 007°02'0 0.0
2017-Nov-11 08:59N 52°16' W 007°02'0 0.0
2017-Nov-11 08:11N 52°16' W 007°02'0 0.0
2017-Nov-11 07:53N 52°16' W 007°02'0 0.0
2017-Nov-11 07:28N 52°16' W 007°02'0 0.0
2017-Nov-11 05:40N 52°16' W 007°02'0 0.0
2017-Nov-11 05:28N 52°16' W 007°02'0 0.0
2017-Nov-11 04:57N 52°16' W 007°02'0 0.0
2017-Nov-11 04:29N 52°16' W 007°02'0 0.0
2017-Nov-11 03:57N 52°16' W 007°02'0 0.0
2017-Nov-11 03:27N 52°16' W 007°02'0 0.0
2017-Nov-11 02:50N 52°16' W 007°02'0 0.0
2017-Nov-11 02:14N 52°16' W 007°02'0 0.0
2017-Nov-11 01:44N 52°16' W 007°02'0 0.0
2017-Nov-11 01:26N 52°16' W 007°02'0 0.0
2017-Nov-11 00:50N 52°16' W 007°02'0 0.0
2017-Nov-10 23:31N 52°16' W 007°02'0 0.0
2017-Nov-10 23:25N 52°16' W 007°02'0 0.0
2017-Nov-10 22:49N 52°16' W 007°02'0 0.0
2017-Nov-10 22:18N 52°16' W 007°02'0 0.0
2017-Nov-10 22:00N 52°16' W 007°02'0 0.0
2017-Nov-10 21:30N 52°16' W 007°02'0 0.0
2017-Nov-10 21:00N 52°16' W 007°02'0 0.0
2017-Nov-10 19:22N 52°16' W 007°02'0 0.3
2017-Nov-10 18:59N 52°16' W 007°02'2 3.4
2017-Nov-10 18:30N 52°16' W 006°59'5 9.0
2017-Nov-10 18:00N 52°12' W 006°56'4 8.5
2017-Nov-10 17:30N 52°08' W 006°58'510.6
2017-Nov-10 17:00N 52°03' W 006°55'510.8
2017-Nov-10 16:30N 51°58' W 006°52'97 9.3
2017-Nov-10 05:59N 50°27' W 005°58'4 7.9
2017-Nov-10 05:30N 50°23' W 005°56'41 7.4
2017-Nov-09 23:57N 49°55' W 005°10'510.1
2017-Nov-09 23:30N 49°55' W 005°03'610.0
2017-Nov-09 22:56N 49°55' W 004°54'4 9.8
2017-Nov-09 22:30N 49°55' W 004°48'5 9.5
2017-Nov-09 21:59N 49°55' W 004°40'5 9.4
2017-Nov-09 21:30N 49°57' W 004°33'5 9.8
2017-Nov-09 21:00N 49°58' W 004°26'5 9.8
2017-Nov-09 20:29N 49°59' W 004°18'5 9.8
2017-Nov-09 20:00N 49°60' W 004°11'610.2
2017-Nov-09 19:23N 50°00' W 004°01'610.7
2017-Nov-09 18:50N 50°01' W 003°52'411.1
2017-Nov-09 18:29N 50°02' W 003°46'611.5
2017-Nov-09 18:00N 50°03' W 003°37'612.0
2017-Nov-09 17:30N 50°03' W 003°28'612.2
2017-Nov-09 17:00N 50°05' W 003°19'612.1
2017-Nov-09 16:30N 50°05' W 003°10'612.1
2017-Nov-09 16:00N 50°07' W 003°00'611.8
2017-Nov-09 15:31N 50°07' W 002°51'611.4
2017-Nov-09 14:59N 50°08' W 002°42'  

Dump ship's entire track history